createdAt,value
2018-07-04T00:00:45.438Z,46.34
2018-07-04T00:01:55.373Z,45.99
2018-07-04T00:03:05.156Z,45.94
2018-07-04T00:04:15.720Z,46.41
2018-07-04T00:05:26.500Z,46.01
2018-07-04T00:06:36.371Z,46.05
2018-07-04T00:07:46.283Z,45.82
2018-07-04T00:08:56.835Z,46.43
2018-07-04T00:10:06.701Z,45.90
2018-07-04T00:11:16.835Z,46.22
2018-07-04T00:12:27.025Z,45.97
2018-07-04T00:13:37.063Z,46.38
2018-07-04T00:14:46.873Z,47.71
2018-07-04T00:15:57.585Z,47.69
2018-07-04T00:17:08.589Z,48.16
2018-07-04T00:18:19.409Z,48.90
2018-07-04T00:19:29.383Z,49.32
2018-07-04T00:20:41.452Z,49.72
2018-07-04T00:21:51.194Z,49.46
2018-07-04T00:23:01.305Z,49.92
2018-07-04T00:24:11.794Z,50.12
2018-07-04T00:25:21.572Z,49.75
2018-07-04T00:26:31.381Z,49.31
2018-07-04T00:27:41.208Z,49.63
2018-07-04T00:28:51.329Z,49.70
2018-07-04T00:30:01.085Z,49.39
2018-07-04T00:31:10.804Z,49.34
2018-07-04T00:32:20.574Z,49.41
2018-07-04T00:33:45.732Z,49.58
2018-07-04T00:34:57.052Z,49.67
2018-07-04T00:36:11.362Z,50.08
2018-07-04T00:37:21.300Z,49.56
2018-07-04T00:38:31.928Z,49.89
2018-07-04T00:39:41.755Z,49.29
2018-07-04T00:40:55.699Z,49.78
2018-07-04T00:42:07.548Z,49.92
2018-07-04T00:43:17.742Z,49.64
2018-07-04T00:44:28.813Z,49.57
2018-07-04T00:45:38.842Z,50.04
2018-07-04T00:46:49.127Z,50.50
2018-07-04T00:48:00.618Z,50.27
2018-07-04T00:49:10.624Z,50.42
2018-07-04T00:50:20.370Z,50.17
2018-07-04T00:51:31.624Z,49.80
2018-07-04T00:52:41.800Z,50.32
2018-07-04T00:53:52.391Z,50.41
2018-07-04T00:55:02.095Z,49.88
2018-07-04T00:57:49.300Z,50.37
2018-07-04T00:59:00.440Z,50.57
2018-07-04T01:00:10.133Z,50.12
2018-07-04T01:01:19.844Z,50.19
2018-07-04T01:02:29.559Z,50.02
2018-07-04T01:03:39.643Z,49.90
2018-07-04T01:04:49.899Z,49.85
2018-07-04T01:05:59.730Z,49.78
2018-07-04T01:07:09.474Z,49.75
2018-07-04T01:08:19.356Z,49.76
2018-07-04T01:09:33.833Z,49.72
2018-07-04T01:10:44.018Z,50.30
2018-07-04T01:11:53.874Z,50.53
2018-07-04T01:13:03.764Z,50.22
2018-07-04T01:14:13.668Z,50.00
2018-07-04T01:15:23.700Z,49.88
2018-07-04T01:16:33.802Z,50.58
2018-07-04T01:17:43.507Z,50.89
2018-07-04T01:20:14.030Z,51.13
2018-07-04T01:21:23.896Z,50.96
2018-07-04T01:22:34.030Z,50.86
2018-07-04T01:23:43.874Z,51.64
2018-07-04T01:24:53.693Z,51.94
2018-07-04T01:26:03.555Z,51.81
2018-07-04T01:27:13.409Z,51.92
2018-07-04T01:28:27.492Z,51.68
2018-07-04T01:29:37.319Z,51.49
2018-07-04T01:30:47.121Z,51.29
2018-07-04T01:31:56.895Z,51.02
2018-07-04T01:33:06.591Z,51.11
2018-07-04T01:34:16.723Z,50.86
2018-07-04T01:35:26.609Z,51.22
2018-07-04T01:36:37.606Z,51.29
2018-07-04T01:37:47.300Z,51.66
2018-07-04T01:38:57.166Z,51.04
2018-07-04T01:40:07.639Z,51.19
2018-07-04T01:41:17.310Z,51.19
2018-07-04T01:42:27.158Z,51.37
2018-07-04T01:43:38.289Z,51.66
2018-07-04T01:44:49.138Z,51.47
2018-07-04T01:46:00.412Z,51.67
2018-07-04T01:47:10.225Z,52.06
2018-07-04T01:48:23.898Z,51.92
2018-07-04T01:49:34.222Z,52.08
2018-07-04T01:50:44.382Z,52.75
2018-07-04T01:51:54.500Z,52.56
2018-07-04T01:53:05.783Z,52.26
2018-07-04T01:54:15.834Z,51.88
2018-07-04T01:55:25.656Z,51.49
2018-07-04T01:56:38.195Z,51.11
2018-07-04T01:57:49.348Z,51.36
2018-07-04T01:59:01.946Z,51.50
2018-07-04T02:00:12.025Z,51.46
2018-07-04T02:01:23.363Z,51.03
2018-07-04T02:02:33.198Z,51.27
2018-07-04T02:03:43.374Z,51.57
2018-07-04T02:04:53.084Z,51.68
2018-07-04T02:06:02.907Z,52.21
2018-07-04T02:07:12.915Z,52.50
2018-07-04T02:08:22.787Z,52.89
2018-07-04T02:09:33.217Z,53.12
2018-07-04T02:10:43.048Z,52.83
2018-07-04T02:11:52.959Z,52.90
2018-07-04T02:13:02.745Z,52.78
2018-07-04T02:14:13.583Z,52.88
2018-07-04T02:15:23.546Z,53.22
2018-07-04T02:16:33.587Z,53.43
2018-07-04T02:17:43.439Z,53.43
2018-07-04T02:18:54.677Z,53.48
2018-07-04T02:20:04.400Z,53.54
2018-07-04T02:21:14.377Z,52.82
2018-07-04T02:22:24.808Z,53.01
2018-07-04T02:23:34.515Z,53.25
2018-07-04T02:24:44.265Z,52.83
2018-07-04T02:25:54.697Z,53.45
2018-07-04T02:27:04.906Z,54.18
2018-07-04T02:28:14.773Z,54.47
2018-07-04T02:29:24.531Z,55.20
2018-07-04T02:30:34.227Z,55.80
2018-07-04T02:31:44.048Z,56.37
2018-07-04T02:32:54.138Z,56.69
2018-07-04T02:34:04.006Z,56.96
2018-07-04T02:35:13.790Z,57.07
2018-07-04T02:36:23.577Z,57.25
2018-07-04T02:37:33.374Z,57.64
2018-07-04T02:38:43.116Z,57.24
2018-07-04T02:39:52.788Z,57.53
2018-07-04T02:41:02.464Z,57.29
2018-07-04T02:42:12.248Z,57.36
2018-07-04T02:43:21.960Z,57.77
2018-07-04T02:44:31.781Z,57.81
2018-07-04T02:45:41.433Z,58.28
2018-07-04T02:46:51.238Z,58.40
2018-07-04T02:48:01.063Z,58.56
2018-07-04T02:49:10.721Z,58.23
2018-07-04T02:50:20.835Z,58.54
2018-07-04T02:51:30.674Z,58.18
2018-07-04T02:52:41.336Z,58.21
2018-07-04T02:53:51.061Z,57.90
2018-07-04T02:55:00.719Z,57.46
2018-07-04T02:56:10.895Z,57.47
2018-07-04T02:57:20.743Z,57.00
2018-07-04T02:58:31.664Z,56.97
2018-07-04T02:59:41.423Z,57.10
2018-07-04T03:00:51.146Z,57.58
2018-07-04T03:02:01.222Z,57.17
2018-07-04T03:03:11.474Z,57.98
2018-07-04T03:04:21.165Z,57.85
2018-07-04T03:05:31.586Z,57.86
2018-07-04T03:06:41.388Z,57.85
2018-07-04T03:07:51.466Z,58.20
2018-07-04T03:09:01.169Z,57.99
2018-07-04T03:10:11.039Z,58.83
2018-07-04T03:11:20.886Z,59.13
2018-07-04T03:12:30.712Z,59.17
2018-07-04T03:13:41.050Z,58.79
2018-07-04T03:14:51.036Z,58.87
2018-07-04T03:16:02.068Z,58.71
2018-07-04T03:17:11.908Z,58.51
2018-07-04T03:18:21.756Z,58.59
2018-07-04T03:19:31.765Z,58.34
2018-07-04T03:20:41.433Z,58.40
2018-07-04T03:21:51.180Z,58.16
2018-07-04T03:23:00.855Z,57.88
2018-07-04T03:24:10.706Z,58.09
2018-07-04T03:25:22.226Z,57.64
2018-07-04T03:26:32.373Z,58.54
2018-07-04T03:27:43.016Z,58.26
2018-07-04T03:28:52.843Z,58.18
2018-07-04T03:30:02.673Z,58.79
2018-07-04T03:31:12.481Z,58.41
2018-07-04T03:32:22.171Z,58.72
2018-07-04T03:33:31.932Z,58.48
2018-07-04T03:34:41.565Z,58.37
2018-07-04T03:35:51.708Z,58.40
2018-07-04T03:37:01.894Z,58.10
2018-07-04T03:38:11.829Z,58.52
2018-07-04T03:39:21.674Z,58.29
2018-07-04T03:40:32.075Z,58.38
2018-07-04T03:41:42.636Z,58.18
2018-07-04T03:42:52.782Z,57.99
2018-07-04T03:44:02.577Z,57.96
2018-07-04T03:45:12.422Z,57.96
2018-07-04T03:46:22.252Z,57.84
2018-07-04T03:47:32.071Z,57.83
2018-07-04T03:48:41.858Z,57.89
2018-07-04T03:49:51.523Z,57.97
2018-07-04T03:51:01.234Z,58.52
2018-07-04T03:52:11.167Z,58.43
2018-07-04T03:53:20.830Z,58.62
2018-07-04T03:54:31.211Z,58.67
2018-07-04T03:55:42.583Z,59.26
2018-07-04T03:56:52.399Z,59.35
2018-07-04T03:58:02.237Z,59.19
2018-07-04T03:59:12.182Z,59.45
2018-07-04T04:00:23.212Z,60.13
2018-07-04T04:01:32.898Z,60.60
2018-07-04T04:02:42.710Z,60.96
2018-07-04T04:03:52.515Z,61.27
2018-07-04T04:05:02.345Z,61.27
2018-07-04T04:06:12.432Z,61.68
2018-07-04T04:07:22.506Z,61.40
2018-07-04T04:08:34.080Z,60.82
2018-07-04T04:09:43.952Z,61.39
2018-07-04T04:10:54.529Z,60.37
2018-07-04T04:12:04.746Z,60.23
2018-07-04T04:13:14.469Z,60.23
2018-07-04T04:14:24.230Z,60.25
2018-07-04T04:15:33.979Z,60.22
2018-07-04T04:16:44.130Z,59.69
2018-07-04T04:17:55.691Z,59.95
2018-07-04T04:19:05.412Z,59.74
2018-07-04T04:20:15.270Z,60.20
2018-07-04T04:21:25.069Z,60.86
2018-07-04T04:22:35.147Z,60.68
2018-07-04T04:23:45.180Z,61.65
2018-07-04T04:24:55.358Z,62.19
2018-07-04T04:26:05.767Z,62.14
2018-07-04T04:27:16.187Z,61.84
2018-07-04T04:28:26.273Z,62.03
2018-07-04T04:29:36.588Z,62.02
2018-07-04T04:30:46.284Z,61.95
2018-07-04T04:31:56.039Z,62.36
2018-07-04T04:33:05.713Z,62.69
2018-07-04T04:34:15.397Z,63.07
2018-07-04T04:35:25.631Z,63.08
2018-07-04T04:36:35.314Z,63.33
2018-07-04T04:37:45.164Z,63.17
2018-07-04T04:38:54.842Z,62.77
2018-07-04T04:40:04.513Z,62.61
2018-07-04T04:41:15.138Z,62.55
2018-07-04T04:42:24.790Z,62.11
2018-07-04T04:43:34.617Z,62.06
2018-07-04T04:44:44.393Z,62.13
2018-07-04T04:45:54.333Z,61.54
2018-07-04T04:47:06.498Z,61.50
2018-07-04T04:48:16.760Z,61.88
2018-07-04T04:49:26.680Z,62.00
2018-07-04T04:50:36.857Z,62.03
2018-07-04T04:51:46.626Z,61.87
2018-07-04T04:52:56.770Z,61.74
2018-07-04T04:54:06.580Z,61.61
2018-07-04T04:55:16.392Z,61.64
2018-07-04T04:56:26.240Z,61.74
2018-07-04T04:57:36.067Z,61.73
2018-07-04T04:58:46.851Z,62.15
2018-07-04T04:59:57.801Z,62.22
2018-07-04T05:01:08.853Z,61.96
2018-07-04T05:02:20.275Z,61.79
2018-07-04T05:03:30.189Z,61.52
2018-07-04T05:04:40.645Z,61.39
2018-07-04T05:05:50.541Z,61.26
2018-07-04T05:07:00.824Z,61.15
2018-07-04T05:08:10.813Z,60.96
2018-07-04T05:09:20.531Z,60.83
2018-07-04T05:10:34.770Z,60.56
2018-07-04T05:11:45.228Z,60.48
2018-07-04T05:13:09.986Z,60.13
2018-07-04T05:14:20.022Z,60.14
2018-07-04T05:15:29.932Z,60.24
2018-07-04T05:16:40.165Z,60.02
2018-07-04T05:17:54.160Z,60.26
2018-07-04T05:19:13.967Z,59.72
2018-07-04T05:20:25.606Z,59.80
2018-07-04T05:21:36.307Z,59.93
2018-07-04T05:22:46.747Z,59.65
2018-07-04T05:23:56.663Z,59.98
2018-07-04T05:25:07.266Z,59.77
2018-07-04T05:26:17.617Z,60.34
2018-07-04T05:27:30.298Z,60.46
2018-07-04T05:28:46.092Z,60.75
2018-07-04T05:29:56.159Z,60.60
2018-07-04T05:31:11.250Z,60.78
2018-07-04T05:39:14.030Z,59.55
2018-07-04T05:40:24.620Z,59.29
2018-07-04T05:41:38.605Z,59.21
2018-07-04T05:42:48.459Z,58.94
2018-07-04T05:43:59.019Z,59.54
2018-07-04T05:46:34.177Z,59.74
2018-07-04T05:47:44.035Z,59.59
2018-07-04T05:48:55.439Z,58.89
2018-07-04T05:50:05.357Z,58.43
2018-07-04T05:51:15.947Z,58.70
2018-07-04T05:52:26.030Z,58.77
2018-07-04T05:53:36.727Z,58.67
2018-07-04T05:54:46.626Z,58.11
2018-07-04T05:55:58.512Z,58.46
2018-07-04T05:57:08.319Z,58.53
2018-07-04T05:58:18.285Z,58.29
2018-07-04T05:59:28.441Z,57.70
2018-07-04T06:00:39.572Z,58.00
2018-07-04T06:01:49.674Z,58.47
2018-07-04T06:03:01.150Z,58.14
2018-07-04T06:04:11.793Z,58.62
2018-07-04T06:05:21.917Z,57.98
2018-07-04T06:06:31.748Z,58.07
2018-07-04T06:07:42.319Z,57.34
2018-07-04T06:08:52.022Z,57.34
2018-07-04T06:10:01.794Z,56.93
2018-07-04T06:11:12.069Z,56.72
2018-07-04T06:12:21.983Z,57.24
2018-07-04T06:13:31.705Z,56.88
2018-07-04T06:14:46.762Z,56.77
2018-07-04T06:15:57.406Z,57.06
2018-07-04T06:17:08.246Z,56.57
2018-07-04T06:18:18.487Z,56.78
2018-07-04T06:19:28.256Z,56.73
2018-07-04T06:20:40.543Z,56.68
2018-07-04T06:21:50.453Z,56.88
2018-07-04T06:24:17.766Z,57.06
2018-07-04T06:25:27.446Z,57.43
2018-07-04T06:26:38.726Z,56.59
2018-07-04T06:27:49.517Z,56.51
2018-07-04T06:28:59.798Z,56.78
2018-07-04T06:30:15.261Z,56.21
2018-07-04T06:31:26.471Z,57.01
2018-07-04T06:32:36.815Z,57.11
2018-07-04T06:33:46.788Z,57.25
2018-07-04T06:34:58.778Z,57.81
2018-07-04T06:36:08.734Z,57.28
2018-07-04T06:37:18.417Z,56.97
2018-07-04T06:38:22.157Z,57.01
2018-07-04T06:39:25.814Z,56.47
2018-07-04T06:40:30.354Z,56.23
2018-07-04T06:41:36.396Z,55.96
2018-07-04T06:42:41.080Z,55.42
2018-07-04T06:43:44.794Z,55.09
2018-07-04T06:44:48.519Z,54.71
2018-07-04T06:45:53.695Z,54.33
2018-07-04T06:46:57.419Z,54.52
2018-07-04T06:48:02.113Z,54.49
2018-07-04T06:49:06.095Z,54.31
2018-07-04T06:50:10.486Z,53.44
2018-07-04T06:51:14.640Z,53.73
2018-07-04T06:52:22.417Z,53.87
2018-07-04T06:54:37.256Z,53.36
2018-07-04T06:55:41.624Z,52.74
2018-07-04T06:56:45.304Z,52.61
2018-07-04T06:57:49.269Z,52.53
2018-07-04T06:58:52.972Z,52.62
2018-07-04T06:59:57.488Z,52.25
2018-07-04T07:01:01.222Z,52.45
2018-07-04T07:02:12.184Z,52.52
2018-07-04T07:03:22.783Z,52.17
2018-07-04T07:05:55.190Z,51.65
2018-07-04T07:07:05.474Z,51.37
2018-07-04T07:08:15.528Z,51.21
2018-07-04T07:09:26.339Z,50.91
2018-07-04T07:11:39.807Z,50.16
2018-07-04T07:12:50.481Z,49.64
2018-07-04T07:14:05.851Z,49.22
2018-07-04T07:15:15.742Z,48.75
2018-07-04T07:16:27.535Z,48.34
2018-07-04T07:17:38.569Z,47.88
2018-07-04T07:18:48.511Z,47.46
2018-07-04T07:19:58.710Z,46.93
2018-07-04T07:21:10.652Z,46.30
2018-07-04T07:22:22.448Z,45.74
2018-07-04T07:23:34.020Z,45.44
2018-07-04T07:24:43.882Z,45.20
2018-07-04T07:25:56.078Z,45.10
2018-07-04T07:27:06.008Z,45.04
2018-07-04T07:28:19.871Z,46.00
2018-07-04T07:29:29.920Z,45.96
2018-07-04T07:30:41.322Z,45.64
2018-07-04T07:31:51.247Z,45.22
2018-07-04T07:33:05.040Z,44.88
2018-07-04T07:34:24.245Z,44.31
2018-07-04T07:35:34.417Z,44.42
2018-07-04T07:36:45.212Z,43.26
2018-07-04T07:37:54.963Z,43.10
2018-07-04T07:40:28.694Z,42.50
2018-07-04T07:41:39.046Z,41.40
2018-07-04T07:42:50.192Z,41.07
2018-07-04T07:44:00.313Z,40.46
2018-07-04T07:45:10.387Z,40.42
2018-07-04T07:46:20.279Z,40.31
2018-07-04T07:47:30.440Z,40.85
2018-07-04T07:48:40.230Z,41.21
2018-07-04T07:49:52.473Z,41.14
2018-07-04T07:51:02.921Z,40.92
2018-07-04T07:52:12.728Z,40.77
2018-07-04T07:53:23.104Z,40.40
2018-07-04T07:54:33.111Z,40.64
2018-07-04T07:55:42.991Z,40.70
2018-07-04T07:56:52.910Z,40.49
2018-07-04T07:58:07.319Z,40.17
2018-07-04T07:59:20.114Z,39.82
2018-07-04T08:00:30.842Z,39.85
2018-07-04T08:01:41.326Z,39.14
2018-07-04T08:02:51.354Z,39.31
2018-07-04T08:04:01.749Z,38.91
2018-07-04T08:05:17.893Z,38.30
2018-07-04T08:06:27.726Z,37.45
2018-07-04T08:07:37.589Z,37.20
2018-07-04T08:08:48.698Z,36.61
2018-07-04T08:09:58.432Z,36.37
2018-07-04T08:11:10.435Z,36.41
2018-07-04T08:12:20.222Z,36.11
2018-07-04T08:13:31.410Z,36.09
2018-07-04T08:14:41.930Z,35.78
2018-07-04T08:15:52.338Z,35.45
2018-07-04T08:17:03.869Z,35.45
2018-07-04T08:18:14.579Z,34.78
2018-07-04T08:19:24.384Z,33.93
2018-07-04T08:20:35.174Z,33.29
2018-07-04T08:21:46.681Z,32.99
2018-07-04T08:22:59.371Z,33.09
2018-07-04T08:24:11.423Z,33.43
2018-07-04T08:25:26.348Z,32.96
2018-07-04T08:26:36.819Z,33.09
2018-07-04T08:27:47.277Z,32.70
2018-07-04T08:28:58.096Z,32.95
2018-07-04T08:30:09.437Z,33.26
2018-07-04T08:31:21.848Z,32.92
2018-07-04T08:32:32.310Z,32.73
2018-07-04T08:33:42.430Z,32.66
2018-07-04T08:34:53.310Z,32.37
2018-07-04T08:36:03.233Z,32.65
2018-07-04T08:37:13.121Z,31.69
2018-07-04T08:38:23.553Z,31.65
2018-07-04T08:39:35.189Z,31.41
2018-07-04T08:40:46.399Z,31.55
2018-07-04T08:41:56.148Z,31.39
2018-07-04T08:43:06.323Z,31.55
2018-07-04T08:44:17.360Z,31.64
2018-07-04T08:45:27.739Z,31.55
2018-07-04T08:46:38.663Z,31.28
2018-07-04T08:47:48.451Z,31.29
2018-07-04T08:48:58.594Z,31.24
2018-07-04T08:50:10.570Z,31.25
2018-07-04T08:51:21.551Z,31.25
2018-07-04T08:52:33.533Z,31.09
2018-07-04T08:53:46.483Z,31.67
2018-07-04T08:55:00.389Z,31.47
2018-07-04T08:56:11.022Z,30.94
2018-07-04T08:57:21.788Z,30.83
2018-07-04T08:58:34.681Z,30.67
2018-07-04T08:59:47.697Z,30.45
2018-07-04T09:00:58.625Z,30.51
2018-07-04T09:02:09.888Z,30.15
2018-07-04T09:03:22.416Z,30.41
2018-07-04T09:04:32.691Z,30.45
2018-07-04T09:05:42.603Z,30.00
2018-07-04T09:06:53.309Z,30.26
2018-07-04T09:08:03.378Z,30.42
2018-07-04T09:09:16.944Z,30.31
2018-07-04T09:10:27.761Z,30.40
2018-07-04T09:11:40.000Z,30.12
2018-07-04T09:12:52.960Z,29.70
2018-07-04T09:14:04.464Z,29.70
2018-07-04T09:15:15.537Z,30.03
2018-07-04T09:16:29.962Z,29.64
2018-07-04T09:17:41.295Z,30.28
2018-07-04T09:18:53.816Z,30.43
2018-07-04T09:20:05.729Z,30.19
2018-07-04T09:21:16.785Z,29.83
2018-07-04T09:22:27.121Z,30.06
2018-07-04T09:23:37.073Z,30.12
2018-07-04T09:24:47.618Z,29.95
2018-07-04T09:25:57.482Z,29.75
2018-07-04T09:30:31.393Z,29.13
2018-07-04T09:31:41.716Z,29.34
2018-07-04T09:32:54.433Z,29.48
2018-07-04T09:34:05.002Z,28.95
2018-07-04T09:35:16.214Z,29.08
2018-07-04T09:36:26.249Z,29.09
2018-07-04T09:37:36.097Z,29.02
2018-07-04T09:38:46.601Z,29.07
2018-07-04T09:40:00.621Z,28.88
2018-07-04T09:41:11.605Z,29.13
2018-07-04T09:42:21.893Z,28.87
2018-07-04T09:43:33.474Z,28.65
2018-07-04T09:44:45.097Z,28.80
2018-07-04T09:45:55.972Z,28.64
2018-07-04T09:47:06.597Z,28.59
2018-07-04T09:49:47.811Z,28.18
2018-07-04T09:50:58.144Z,27.97
2018-07-04T09:52:22.229Z,28.15
2018-07-04T09:53:37.939Z,27.89
2018-07-04T09:54:50.297Z,27.92
2018-07-04T09:56:02.567Z,27.58
2018-07-04T09:57:19.837Z,27.82
2018-07-04T09:59:58.369Z,28.06
2018-07-04T10:01:14.247Z,27.89
2018-07-04T10:05:19.559Z,27.70
2018-07-04T10:09:29.348Z,26.65
2018-07-04T10:10:43.463Z,26.63
2018-07-04T10:11:53.808Z,26.39
2018-07-04T10:17:11.206Z,27.96
2018-07-04T10:19:47.835Z,27.64
2018-07-04T10:21:01.996Z,27.68
2018-07-04T10:22:13.334Z,27.57
2018-07-04T10:23:24.728Z,27.05
2018-07-04T10:24:43.283Z,26.73
2018-07-04T10:25:55.804Z,27.22
2018-07-04T10:27:07.724Z,27.39
2018-07-04T10:28:20.383Z,27.43
2018-07-04T10:29:36.958Z,27.35
2018-07-04T10:30:52.762Z,27.70
2018-07-04T10:36:16.168Z,28.10
2018-07-04T10:37:32.721Z,27.44
2018-07-04T10:38:50.498Z,27.20
2018-07-04T10:41:31.605Z,27.77
2018-07-04T10:42:55.990Z,27.55
2018-07-04T10:44:09.973Z,27.64
2018-07-04T10:46:38.726Z,27.87
2018-07-04T10:49:16.660Z,28.07
2018-07-04T10:56:09.299Z,28.38
2018-07-04T10:58:37.041Z,28.64
2018-07-04T10:59:56.250Z,28.85
2018-07-04T11:02:36.809Z,29.36
2018-07-04T11:03:56.047Z,29.95
2018-07-04T11:05:10.062Z,30.03
2018-07-04T11:06:23.479Z,29.89
2018-07-04T11:07:35.961Z,29.91
2018-07-04T11:10:04.069Z,29.83
2018-07-04T11:11:15.032Z,29.72
2018-07-04T11:13:45.672Z,30.03
2018-07-04T11:14:59.267Z,30.16
2018-07-04T11:16:10.807Z,29.80
2018-07-04T11:17:21.558Z,29.94
2018-07-04T11:18:35.688Z,29.72
2018-07-04T11:21:10.108Z,29.05
2018-07-04T11:23:47.402Z,28.88
2018-07-04T11:25:03.717Z,28.16
2018-07-04T11:27:45.600Z,28.68
2018-07-04T11:31:36.404Z,29.47
2018-07-04T11:32:47.390Z,29.67
2018-07-04T11:33:58.485Z,29.57
2018-07-04T11:35:09.126Z,29.68
2018-07-04T11:37:41.142Z,30.61
2018-07-04T11:38:52.708Z,30.69
2018-07-04T11:40:04.318Z,30.99
2018-07-04T11:41:19.572Z,31.05
2018-07-04T11:42:35.187Z,31.53
2018-07-04T11:43:48.163Z,31.24
2018-07-04T11:44:59.060Z,31.67
2018-07-04T11:47:22.498Z,30.73
2018-07-04T11:48:29.281Z,30.25
2018-07-04T11:49:34.086Z,30.12
2018-07-04T11:51:51.419Z,29.76
2018-07-04T11:53:01.912Z,29.97
2018-07-04T11:54:06.665Z,29.56
2018-07-04T11:55:15.397Z,29.47
2018-07-04T11:56:19.853Z,29.90
2018-07-04T11:57:26.981Z,29.96
2018-07-04T11:59:57.190Z,30.31
2018-07-04T12:01:02.232Z,30.22
2018-07-04T12:02:06.936Z,30.52
2018-07-04T12:03:15.535Z,30.21
2018-07-04T12:04:25.667Z,30.10
2018-07-04T12:05:38.014Z,30.35
2018-07-04T12:06:50.653Z,30.43
2018-07-04T12:07:55.489Z,31.24
2018-07-04T12:09:06.311Z,31.29
2018-07-04T12:10:11.248Z,32.87
2018-07-04T12:11:15.071Z,33.90
2018-07-04T12:12:19.285Z,34.47
2018-07-04T12:14:36.428Z,36.64
2018-07-04T12:15:45.518Z,36.46
2018-07-04T12:16:54.127Z,37.82
2018-07-04T12:19:21.642Z,37.40
2018-07-04T12:20:31.106Z,37.91
2018-07-04T12:21:36.308Z,37.58
2018-07-04T12:22:45.050Z,38.12
2018-07-04T12:23:52.377Z,38.53
2018-07-04T12:24:57.394Z,38.97
2018-07-04T12:26:01.952Z,38.95
2018-07-04T12:31:18.216Z,38.03
2018-07-04T12:32:24.297Z,38.89
2018-07-04T12:33:29.636Z,39.55
2018-07-04T12:34:36.117Z,39.64
2018-07-04T12:37:02.451Z,39.62
2018-07-04T12:39:24.023Z,39.59
2018-07-04T12:40:50.121Z,39.51
2018-07-04T12:48:44.963Z,38.70
2018-07-04T12:52:15.114Z,39.58
2018-07-04T12:53:20.621Z,40.24
2018-07-04T12:54:32.366Z,39.99
2018-07-04T12:57:09.699Z,39.83
2018-07-04T12:58:21.428Z,39.52
2018-07-04T13:00:53.996Z,39.03
2018-07-04T13:02:06.818Z,39.30
2018-07-04T13:03:20.235Z,39.23
2018-07-04T13:04:30.778Z,38.82
2018-07-04T13:05:47.455Z,38.84
2018-07-04T13:07:00.776Z,39.02
2018-07-04T13:08:15.867Z,39.95
2018-07-04T13:09:30.514Z,40.76
2018-07-04T13:10:41.788Z,41.14
2018-07-04T13:11:56.377Z,40.99
2018-07-04T13:13:07.969Z,40.36
2018-07-04T13:14:20.264Z,40.30
2018-07-04T13:15:30.571Z,40.65
2018-07-04T13:17:57.750Z,40.95
2018-07-04T13:19:11.729Z,41.01
2018-07-04T13:20:23.165Z,40.85
2018-07-04T13:21:37.304Z,41.16
2018-07-04T13:24:12.747Z,41.87
2018-07-04T13:25:28.112Z,41.59
2018-07-04T13:26:45.887Z,41.95
2018-07-04T13:27:59.060Z,42.24
2018-07-04T13:29:10.424Z,43.51
2018-07-04T13:30:20.299Z,44.00
2018-07-04T13:33:03.822Z,44.67
2018-07-04T13:34:20.343Z,44.29
2018-07-04T13:36:48.284Z,43.87
2018-07-04T13:37:59.386Z,44.34
2018-07-04T13:40:41.139Z,44.48
2018-07-04T13:41:52.517Z,43.75
2018-07-04T13:43:02.447Z,43.72
2018-07-04T13:44:22.903Z,44.07
2018-07-04T15:28:40.570Z,46.66
2018-07-04T15:29:52.814Z,46.79
2018-07-04T15:31:05.332Z,46.03
2018-07-04T15:32:17.123Z,46.35
2018-07-04T15:33:31.466Z,46.65
2018-07-04T15:34:42.858Z,46.77
2018-07-04T15:35:52.605Z,46.38
2018-07-04T15:37:04.539Z,46.22
2018-07-04T15:38:15.065Z,46.72
2018-07-04T15:39:26.775Z,46.53
2018-07-04T15:40:36.713Z,47.01
2018-07-04T15:41:46.555Z,47.16
2018-07-04T15:42:56.566Z,47.02
2018-07-04T15:44:07.789Z,47.31
2018-07-04T15:45:20.577Z,47.23
2018-07-04T15:46:31.113Z,47.11
2018-07-04T15:47:40.998Z,47.29
2018-07-04T15:48:50.902Z,47.92
2018-07-04T15:50:00.977Z,47.70
2018-07-04T15:51:11.401Z,47.76
2018-07-04T15:52:25.068Z,47.64
2018-07-04T15:53:34.924Z,48.49
2018-07-04T15:54:45.704Z,48.78
2018-07-04T15:55:57.599Z,48.76
2018-07-04T15:57:12.490Z,49.27
2018-07-04T15:58:22.626Z,49.07
2018-07-04T15:59:32.885Z,49.71
2018-07-04T16:00:42.908Z,49.62
2018-07-04T16:03:12.499Z,50.30
2018-07-04T16:04:23.708Z,51.08
2018-07-04T16:05:46.132Z,51.55
2018-07-04T16:08:25.964Z,52.95
2018-07-04T16:09:38.847Z,53.70
2018-07-04T16:10:50.256Z,54.39
2018-07-04T16:12:00.251Z,54.54
2018-07-04T16:13:10.486Z,54.53
2018-07-04T16:15:40.191Z,55.02
2018-07-04T16:16:51.197Z,55.71
2018-07-04T16:18:02.637Z,56.50
2018-07-04T16:19:14.248Z,56.55
2018-07-04T16:20:26.611Z,56.47
2018-07-04T16:21:39.899Z,57.07
2018-07-04T16:22:55.969Z,56.71
2018-07-04T16:24:10.153Z,56.25
2018-07-04T16:25:21.001Z,56.47
2018-07-04T16:26:32.292Z,56.03
2018-07-04T16:27:43.266Z,56.30
2018-07-04T16:28:53.789Z,55.97
2018-07-04T16:30:04.348Z,56.31
2018-07-04T16:31:14.222Z,56.45
2018-07-04T16:32:25.807Z,56.58
2018-07-04T16:33:37.450Z,56.46
2018-07-04T16:34:52.366Z,56.75
2018-07-04T16:36:02.407Z,57.18
2018-07-04T16:37:13.170Z,57.56
2018-07-04T16:38:26.640Z,57.67
2018-07-04T16:39:38.364Z,57.37
2018-07-04T16:40:49.558Z,57.09
2018-07-04T16:42:03.376Z,57.56
2018-07-04T16:43:18.286Z,57.79
2018-07-04T16:44:32.349Z,58.20
2018-07-04T16:45:45.631Z,57.92
2018-07-04T16:46:55.303Z,57.75
2018-07-04T16:48:07.349Z,57.73
2018-07-04T16:49:20.508Z,58.15
2018-07-04T16:50:33.958Z,58.42
2018-07-04T16:51:44.491Z,58.13
2018-07-04T16:52:54.824Z,58.54
2018-07-04T16:54:07.763Z,58.63
2018-07-04T16:55:24.366Z,58.22
2018-07-04T16:56:37.885Z,58.59
2018-07-04T16:57:49.763Z,59.04
2018-07-04T16:59:02.802Z,58.79
2018-07-04T17:00:18.368Z,59.06
2018-07-04T17:01:28.845Z,59.39
2018-07-04T17:02:43.562Z,59.46
2018-07-04T17:03:55.110Z,59.28
2018-07-04T17:05:07.157Z,59.62
2018-07-04T17:06:18.475Z,59.96
2018-07-04T17:07:28.299Z,59.52
2018-07-04T17:08:38.171Z,59.44
2018-07-04T17:09:49.269Z,59.61
2018-07-04T17:10:59.095Z,59.70
2018-07-04T17:12:10.247Z,59.15
2018-07-04T17:13:21.805Z,59.75
2018-07-04T17:14:32.238Z,59.89
2018-07-04T17:15:43.467Z,59.99
2018-07-04T17:16:56.347Z,59.96
2018-07-04T17:18:06.421Z,59.63
2018-07-04T17:19:16.428Z,59.56
2018-07-04T17:20:26.352Z,59.67
2018-07-04T17:21:36.449Z,59.94
2018-07-04T17:22:46.923Z,60.07
2018-07-04T17:23:57.298Z,60.07
2018-07-04T17:25:08.384Z,59.81
2018-07-04T17:26:18.254Z,59.28
2018-07-04T17:27:28.294Z,58.89
2018-07-04T17:28:39.325Z,59.28
2018-07-04T17:29:49.045Z,58.81
2018-07-04T17:30:59.697Z,59.02
2018-07-04T17:32:12.592Z,58.77
2018-07-04T17:33:22.629Z,58.83
2018-07-04T17:34:32.403Z,59.17
2018-07-04T17:35:42.307Z,59.35
2018-07-04T17:36:52.866Z,59.27
2018-07-04T17:38:06.831Z,59.13
2018-07-04T17:39:21.494Z,58.74
2018-07-04T17:40:31.884Z,58.32
2018-07-04T17:41:42.645Z,58.76
2018-07-04T17:42:53.432Z,58.79
2018-07-04T17:44:03.497Z,59.11
2018-07-04T17:45:16.591Z,58.71
2018-07-04T17:46:27.418Z,58.56
2018-07-04T17:47:38.489Z,58.61
2018-07-04T17:48:48.366Z,57.37
2018-07-04T17:49:58.173Z,57.04
2018-07-04T17:51:08.608Z,57.07
2018-07-04T17:52:18.602Z,56.31
2018-07-04T17:53:30.873Z,56.26
2018-07-04T17:54:40.914Z,55.42
2018-07-04T17:55:52.677Z,55.35
2018-07-04T17:57:07.929Z,55.06
2018-07-04T17:58:19.522Z,54.81
2018-07-04T17:59:31.303Z,54.44
2018-07-04T18:00:42.410Z,54.70
2018-07-04T18:01:53.047Z,54.52
2018-07-04T18:03:07.358Z,54.35
2018-07-04T18:04:19.356Z,54.50
2018-07-04T18:05:29.905Z,54.14
2018-07-04T18:06:42.367Z,54.51
2018-07-04T18:07:54.673Z,54.31
2018-07-04T18:09:07.132Z,54.16
2018-07-04T18:11:35.477Z,53.95
2018-07-04T18:12:45.695Z,54.10
2018-07-04T18:13:55.901Z,54.49
2018-07-04T18:15:07.560Z,54.43
2018-07-04T18:16:18.120Z,54.74
2018-07-04T18:17:32.240Z,55.00
2018-07-04T18:18:44.990Z,55.14
2018-07-04T18:19:55.824Z,55.42
2018-07-04T18:21:11.783Z,55.77
2018-07-04T18:22:23.647Z,56.02
2018-07-04T18:23:34.176Z,56.32
2018-07-04T18:24:48.676Z,56.62
2018-07-04T18:26:05.889Z,57.02
2018-07-04T18:27:18.192Z,57.03
2018-07-04T18:28:29.233Z,57.22
2018-07-04T18:29:42.131Z,57.59
2018-07-04T18:30:53.775Z,57.87
2018-07-04T18:32:06.845Z,58.27
2018-07-04T18:33:17.226Z,58.08
2018-07-04T18:34:32.609Z,58.44
2018-07-04T18:35:44.007Z,58.45